« Back
NWS Peachtree City, Ga » Text Product » CSG Terminal Aerodrome Forecast

Printer-friendly Version
Current Version              Previous Versions:   1  2  3  4  5  6  7  8  9  

Terminal Aerodrome Forecast

FTUS42 KFFC 061132
KCSG 061132Z 0612/0712 06006KT P6SM BKN020
     FM061400 06007KT P6SM BKN030
     FM061700 02007KT P6SM SCT040 SCT250
     FM062000 02005KT P6SM SCT050 SCT250
     FM070100 06004KT P6SM SCT080=

USA.gov is the U.S. government's official web portal to all federal, state and local government web resources and services.